Time;durP1;ratioP1;P1;durP2;ratioP2;P2;SDS_P1;SDS_P2;PMS_P1;PMS_P2;Temp;Humidity;BMP_temperature;BMP_pressure;BME280_temperature;BME280_humidity;BME280_pressure;Samples;Min_cycle;Max_cycle;Signal;HPM_P1;HPM_P2
2022/12/30 00:00:46;;;;;;;38.17;4.72;;;6.50;99.90;;;;;;5006975;28;20408;-62
2022/12/30 00:03:12;;;;;;;32.83;3.85;;;6.50;99.90;;;;;;5024872;28;20041;-63
2022/12/30 00:05:38;;;;;;;26.67;3.72;;;6.40;99.90;;;;;;5024665;28;20045;-62
2022/12/30 00:08:04;;;;;;;31.33;4.15;;;6.40;99.90;;;;;;5024720;28;20163;-63
2022/12/30 00:10:29;;;;;;;19.80;3.28;;;6.40;99.90;;;;;;5011989;28;20058;-62
2022/12/30 00:35:11;;;;;;;34.40;4.07;;;6.30;99.90;;;;;;4995012;28;20124;-62
2022/12/30 00:37:37;;;;;;;33.85;3.88;;;6.20;99.90;;;;;;5025276;28;20045;-62
2022/12/30 00:40:03;;;;;;;32.60;3.90;;;6.20;99.90;;;;;;5024567;28;20052;-62
2022/12/30 00:45:12;;;;;;;28.35;3.17;;;6.20;99.90;;;;;;5025222;28;20041;-62
2022/12/30 00:47:38;;;;;;;36.05;3.65;;;6.20;99.90;;;;;;5024759;28;20053;-62
2022/12/30 00:58:19;;;;;;;34.10;4.25;;;6.20;99.90;;;;;;5024852;28;20089;-62
2022/12/30 01:00:45;;;;;;;32.63;3.10;;;6.20;99.90;;;;;;5004551;28;20053;-62
2022/12/30 01:03:11;;;;;;;35.35;4.70;;;6.20;99.90;;;;;;5006450;28;20411;-62
2022/12/30 01:05:40;;;;;;;45.13;4.40;;;6.20;99.90;;;;;;5024609;28;20132;-62
2022/12/30 01:08:06;;;;;;;35.88;3.78;;;6.10;99.90;;;;;;5023752;28;20045;-62
2022/12/30 01:10:32;;;;;;;33.92;3.85;;;6.10;99.90;;;;;;5024653;28;20486;-62
2022/12/30 01:12:58;;;;;;;28.50;3.72;;;6.10;99.90;;;;;;5005938;28;20090;-62
2022/12/30 01:15:24;;;;;;;13.45;2.60;;;6.10;99.90;;;;;;5024839;28;20080;-62
2022/12/30 01:17:50;;;;;;;23.80;3.15;;;6.10;99.90;;;;;;5023730;28;20081;-62
2022/12/30 01:20:16;;;;;;;24.98;3.22;;;6.00;99.90;;;;;;5024634;28;20375;-62
2022/12/30 01:22:42;;;;;;;37.33;3.75;;;6.00;99.90;;;;;;5023727;28;20045;-62
2022/12/30 01:25:08;;;;;;;31.52;3.88;;;6.00;99.90;;;;;;5024425;28;20086;-62
2022/12/30 01:27:34;;;;;;;32.08;3.88;;;6.00;99.90;;;;;;5024713;28;20049;-62
2022/12/30 01:30:00;;;;;;;36.22;4.80;;;5.90;99.90;;;;;;5023536;28;20438;-63
2022/12/30 01:32:29;;;;;;;38.10;4.10;;;5.90;99.90;;;;;;5024410;28;20052;-62
2022/12/30 01:34:55;;;;;;;34.20;3.80;;;5.90;99.90;;;;;;5023153;28;20040;-62
2022/12/30 01:37:21;;;;;;;17.60;3.70;;;5.90;99.90;;;;;;5024565;28;20800;-62
2022/12/30 01:39:48;;;;;;;47.95;6.40;;;5.90;99.90;;;;;;5006523;28;20052;-62
2022/12/30 01:42:21;;;;;;;46.33;4.95;;;5.90;99.90;;;;;;5006211;28;20104;-62
2022/12/30 01:45:17;;;;;;;28.92;4.30;;;5.90;99.90;;;;;;5024579;28;20042;-62
2022/12/30 01:48:13;;;;;;;32.80;3.55;;;5.90;99.90;;;;;;5013672;28;20049;-62
2022/12/30 01:50:42;;;;;;;30.63;3.60;;;5.80;99.90;;;;;;5024167;28;20496;-62
2022/12/30 01:53:13;;;;;;;37.03;3.40;;;5.80;99.90;;;;;;5023652;28;20053;-62
2022/12/30 01:55:43;;;;;;;42.92;4.00;;;5.80;99.90;;;;;;5024074;28;20080;-62
2022/12/30 01:58:15;;;;;;;37.88;4.03;;;5.70;99.90;;;;;;5023978;28;20081;-62
2022/12/30 02:00:41;;;;;;;29.73;3.47;;;5.70;99.90;;;;;;5024297;28;20050;-62
2022/12/30 02:03:08;;;;;;;29.05;4.03;;;5.70;99.90;;;;;;5009144;28;20133;-62
2022/12/30 02:05:39;;;;;;;32.80;4.45;;;5.70;99.90;;;;;;5027324;28;20052;-62
2022/12/30 02:08:12;;;;;;;32.85;4.20;;;5.70;99.90;;;;;;5009472;28;20555;-63
2022/12/30 02:10:40;;;;;;;33.20;3.72;;;5.70;99.90;;;;;;5027273;28;20460;-63
2022/12/30 02:13:09;;;;;;;30.13;3.75;;;5.50;99.90;;;;;;5008975;28;20152;-63
2022/12/30 02:16:00;;;;;;;39.67;4.60;;;5.50;99.90;;;;;;5028407;28;20069;-63
2022/12/30 02:18:58;;;;;;;24.30;3.70;;;5.50;99.90;;;;;;5008295;28;20053;-62
2022/12/30 02:21:45;;;;;;;30.02;4.03;;;5.40;99.90;;;;;;5026767;28;20837;-63
2022/12/30 02:24:27;;;;;;;40.42;3.00;;;5.50;99.90;;;;;;5026752;28;20042;-62
2022/12/30 02:27:16;;;;;;;32.75;3.10;;;5.60;99.90;;;;;;5007764;28;20060;-62
2022/12/30 02:30:08;;;;;;;28.35;3.33;;;5.60;99.90;;;;;;4993219;28;20448;-62
2022/12/30 02:33:07;;;;;;;29.05;3.80;;;5.60;99.90;;;;;;5022673;28;20511;-62
2022/12/30 02:35:36;;;;;;;37.58;3.78;;;5.70;99.90;;;;;;4992479;28;20400;-63
2022/12/30 02:38:20;;;;;;;43.40;3.50;;;5.70;99.90;;;;;;5022939;28;20085;-63
2022/12/30 02:46:29;;;;;;;25.40;3.28;;;5.60;99.90;;;;;;5019521;28;20084;-62
2022/12/30 02:48:57;;;;;;;26.55;3.10;;;5.60;99.90;;;;;;5019039;28;20116;-63
2022/12/30 02:54:08;;;;;;;37.60;3.90;;;5.60;99.90;;;;;;5027286;28;20464;-63
2022/12/30 02:56:35;;;;;;;46.72;4.25;;;5.60;99.90;;;;;;5026497;28;20096;-62
2022/12/30 03:05:06;;;;;;;23.88;3.70;;;5.50;99.90;;;;;;5025972;28;20503;-62
2022/12/30 03:08:00;;;;;;;44.42;4.15;;;5.50;99.90;;;;;;5027195;28;20124;-62
2022/12/30 03:13:20;;;;;;;33.72;3.47;;;5.40;99.90;;;;;;5026424;28;20049;-62
2022/12/30 03:16:13;;;;;;;17.42;2.78;;;5.40;99.90;;;;;;5026696;28;20056;-62
2022/12/30 03:18:39;;;;;;;36.42;3.42;;;5.30;99.90;;;;;;5026188;28;20048;-63
2022/12/30 03:21:07;;;;;;;26.00;3.05;;;5.30;99.90;;;;;;5026239;28;20511;-62
2022/12/30 03:29:10;;;;;;;33.08;3.65;;;5.30;99.90;;;;;;5026366;28;20049;-63
2022/12/30 03:31:36;;;;;;;25.00;3.95;;;5.30;99.90;;;;;;5025855;28;20500;-63
2022/12/30 03:34:02;;;;;;;44.33;4.28;;;5.30;99.90;;;;;;5026330;28;20046;-62
2022/12/30 03:36:34;;;;;;;38.75;3.15;;;5.30;99.90;;;;;;4990998;28;20057;-62
2022/12/30 03:39:17;;;;;;;22.20;3.17;;;5.30;99.90;;;;;;5025932;28;20488;-63
2022/12/30 03:41:47;;;;;;;20.25;2.80;;;5.30;99.90;;;;;;5026642;28;20419;-62
2022/12/30 03:44:13;;;;;;;;;;;5.30;99.90;;;;;;5025574;28;20530;-62
2022/12/30 03:46:41;;;;;;;26.92;3.15;;;5.30;99.90;;;;;;5025958;28;20383;-62
2022/12/30 03:49:07;;;;;;;40.92;2.80;;;5.30;99.90;;;;;;5025675;28;20045;-62
2022/12/30 03:51:33;;;;;;;34.65;3.72;;;5.30;99.90;;;;;;5007715;28;20056;-62
2022/12/30 03:53:59;;;;;;;24.80;2.38;;;5.30;99.90;;;;;;5026036;28;20049;-62
2022/12/30 03:56:25;;;;;;;32.63;3.22;;;5.30;99.90;;;;;;5006614;28;20051;-62
2022/12/30 03:58:51;;;;;;;32.53;3.80;;;5.30;99.90;;;;;;5026020;28;20041;-62
2022/12/30 04:01:17;;;;;;;23.27;2.85;;;5.20;99.90;;;;;;5006852;28;20480;-62
2022/12/30 04:03:43;;;;;;;44.95;4.45;;;5.30;99.90;;;;;;5025711;28;20057;-62
2022/12/30 04:06:08;;;;;;;22.90;2.60;;;5.30;99.90;;;;;;5025654;28;20541;-62
2022/12/30 04:08:34;;;;;;;31.38;3.78;;;5.30;99.90;;;;;;5025264;28;20060;-62
2022/12/30 04:11:00;;;;;;;25.15;3.58;;;5.30;99.90;;;;;;5025684;28;20045;-62
2022/12/30 04:13:26;;;;;;;22.55;2.88;;;5.30;99.90;;;;;;5025074;28;20602;-62
2022/12/30 04:15:52;;;;;;;37.28;4.43;;;5.20;99.90;;;;;;5025924;28;20538;-62
2022/12/30 04:18:18;;;;;;;24.58;3.28;;;5.20;99.90;;;;;;5024732;28;20369;-62
2022/12/30 04:20:48;;;;;;;32.03;2.92;;;5.20;99.90;;;;;;5025804;28;20060;-62
2022/12/30 04:23:14;;;;;;;23.80;2.97;;;5.20;99.90;;;;;;5024545;28;20482;-63
2022/12/30 04:25:40;;;;;;;30.48;3.15;;;5.20;99.90;;;;;;5025675;28;20048;-62
2022/12/30 04:28:06;;;;;;;37.60;4.03;;;5.20;99.90;;;;;;5025203;28;20034;-62
2022/12/30 04:30:33;;;;;;;12.02;1.90;;;5.30;99.90;;;;;;5025032;28;20150;-62
2022/12/30 04:32:59;;;;;;;27.52;3.17;;;5.30;99.90;;;;;;5025012;28;20091;-62
2022/12/30 04:35:25;;;;;;;33.42;2.97;;;5.30;99.90;;;;;;5024207;28;20048;-62
2022/12/30 04:37:50;;;;;;;23.92;3.05;;;5.20;99.90;;;;;;5005739;28;20054;-62
2022/12/30 04:40:17;;;;;;;35.65;3.30;;;5.20;99.90;;;;;;5002575;28;20050;-62
2022/12/30 04:42:43;;;;;;;39.38;2.90;;;5.20;99.90;;;;;;5018673;28;20499;-62
2022/12/30 04:45:09;;;;;;;22.13;3.03;;;5.20;99.90;;;;;;5024738;28;20048;-62
2022/12/30 04:47:35;;;;;;;23.80;3.78;;;5.20;99.90;;;;;;5024780;28;20057;-62
2022/12/30 04:50:01;;;;;;;37.33;2.97;;;5.20;99.90;;;;;;5024742;28;20369;-62
2022/12/30 04:52:28;;;;;;;18.52;2.97;;;5.20;99.90;;;;;;5024113;28;20087;-62
2022/12/30 04:54:54;;;;;;;29.15;3.22;;;5.20;99.90;;;;;;5024998;28;20049;-62
2022/12/30 04:57:19;;;;;;;21.48;2.47;;;5.10;99.90;;;;;;5006004;28;20065;-62
2022/12/30 04:59:45;;;;;;;39.40;4.03;;;5.00;99.90;;;;;;5025154;28;20445;-62
2022/12/30 05:02:12;;;;;;;39.45;5.45;;;5.00;99.90;;;;;;5024923;28;20042;-63
2022/12/30 05:04:37;;;;;;;51.80;7.18;;;5.00;99.90;;;;;;5006849;28;20064;-63
2022/12/30 05:07:03;;;;;;;35.30;6.05;;;5.00;99.90;;;;;;5006744;28;20041;-62
2022/12/30 05:09:29;;;;;;;31.45;5.95;;;5.00;99.90;;;;;;5024305;28;20099;-62
2022/12/30 05:11:55;;;;;;;37.47;5.35;;;5.00;99.90;;;;;;5024947;28;20545;-62
2022/12/30 05:14:21;;;;;;;27.70;3.95;;;5.00;99.90;;;;;;5023521;28;20096;-62
2022/12/30 05:16:46;;;;;;;25.80;3.58;;;5.00;99.90;;;;;;5025045;28;20045;-62
2022/12/30 05:19:12;;;;;;;21.17;3.78;;;5.20;99.90;;;;;;5023656;28;20132;-62
2022/12/30 05:21:38;;;;;;;30.85;5.15;;;5.10;99.90;;;;;;5006684;28;20061;-62
2022/12/30 05:26:49;;;;;;;34.35;4.80;;;5.10;99.90;;;;;;4995742;28;20484;-62
2022/12/30 05:29:14;;;;;;;34.97;4.97;;;5.00;99.90;;;;;;5024751;28;20041;-62
2022/12/30 05:31:40;;;;;;;28.33;4.43;;;5.00;99.90;;;;;;5005539;28;20053;-62
2022/12/30 05:34:06;;;;;;;15.68;3.03;;;4.90;99.90;;;;;;5024225;28;20041;-62
2022/12/30 05:36:32;;;;;;;28.90;4.88;;;5.00;99.90;;;;;;5008117;28;20603;-62
2022/12/30 05:38:58;;;;;;;24.40;4.75;;;4.90;99.90;;;;;;5028728;28;20045;-62
2022/12/30 05:41:24;;;;;;;30.77;6.38;;;5.00;99.90;;;;;;5027995;28;20049;-63
2022/12/30 05:43:49;;;;;;;16.33;4.35;;;5.00;99.90;;;;;;5027071;28;20132;-62
2022/12/30 05:46:17;;;;;;;35.72;6.20;;;5.10;99.90;;;;;;5010117;28;20488;-62
2022/12/30 05:48:43;;;;;;;33.55;5.55;;;5.20;99.90;;;;;;5027532;28;20053;-62
2022/12/30 05:51:09;;;;;;;33.85;5.80;;;5.20;99.90;;;;;;5028269;28;20454;-62
2022/12/30 05:53:34;;;;;;;38.22;6.28;;;5.20;99.90;;;;;;5009170;28;20084;-62
2022/12/30 05:56:00;;;;;;;30.98;5.45;;;5.20;99.90;;;;;;5028161;28;20077;-62
2022/12/30 05:58:26;;;;;;;27.38;4.85;;;5.30;99.90;;;;;;5010160;28;20087;-62
2022/12/30 06:00:55;;;;;;;27.77;5.00;;;5.30;99.90;;;;;;5027514;28;20133;-62
2022/12/30 06:03:20;;;;;;;19.48;4.30;;;5.30;99.90;;;;;;5027983;28;20045;-63
2022/12/30 06:05:46;;;;;;;34.17;5.07;;;5.30;99.90;;;;;;4989546;28;20061;-62
2022/12/30 06:08:12;;;;;;;35.35;6.82;;;5.30;99.90;;;;;;5021372;28;20059;-62
2022/12/30 06:10:37;;;;;;;25.70;5.03;;;5.30;99.90;;;;;;5026876;28;20045;-62
2022/12/30 06:13:03;;;;;;;31.30;5.20;;;5.30;99.90;;;;;;5028388;28;20042;-62
2022/12/30 06:15:29;;;;;;;30.75;6.40;;;5.20;99.90;;;;;;5027056;28;20034;-62
2022/12/30 06:17:54;;;;;;;29.80;5.30;;;5.20;99.90;;;;;;5027598;28;20033;-62
2022/12/30 06:20:20;;;;;;;36.33;6.45;;;5.20;99.90;;;;;;5027691;28;20080;-62
2022/12/30 06:22:46;;;;;;;31.17;6.00;;;5.10;99.90;;;;;;5027115;28;20546;-62
2022/12/30 06:25:12;;;;;;;32.35;5.55;;;5.10;99.90;;;;;;5009690;28;20053;-62
2022/12/30 06:27:37;;;;;;;24.33;4.05;;;5.10;99.90;;;;;;5026796;28;20041;-62
2022/12/30 06:30:04;;;;;;;19.80;4.13;;;5.00;99.90;;;;;;5006670;28;20471;-62
2022/12/30 06:32:31;;;;;;;31.13;3.60;;;5.00;99.90;;;;;;5021116;28;20431;-62
2022/12/30 06:34:57;;;;;;;26.25;3.80;;;4.90;99.90;;;;;;5027657;28;20308;-62
2022/12/30 06:37:24;;;;;;;27.17;3.92;;;4.80;99.90;;;;;;5009532;28;20049;-62
2022/12/30 06:39:49;;;;;;;21.60;3.47;;;4.80;99.90;;;;;;5026928;28;20124;-63
2022/12/30 06:42:15;;;;;;;21.42;3.65;;;4.80;99.90;;;;;;4993391;28;20136;-63
2022/12/30 06:44:41;;;;;;;23.55;3.08;;;4.70;99.90;;;;;;5026608;28;20044;-62
2022/12/30 06:47:07;;;;;;;25.58;3.20;;;4.70;99.90;;;;;;5026378;28;20531;-62
2022/12/30 06:49:32;;;;;;;24.20;3.03;;;4.60;99.90;;;;;;5026779;28;20136;-62
2022/12/30 06:51:58;;;;;;;22.90;2.50;;;4.60;99.90;;;;;;5005843;28;20080;-62
2022/12/30 06:54:24;;;;;;;21.27;2.78;;;4.50;99.90;;;;;;5000322;28;20096;-62
2022/12/30 06:56:49;;;;;;;22.52;3.20;;;4.40;99.90;;;;;;5026313;28;20474;-62
2022/12/30 06:59:16;;;;;;;27.80;3.42;;;4.40;99.90;;;;;;5027225;28;20122;-62
2022/12/30 07:01:42;;;;;;;17.80;2.28;;;4.30;99.90;;;;;;5025488;28;20045;-62
2022/12/30 07:04:07;;;;;;;27.35;2.88;;;4.40;99.90;;;;;;5025108;28;20037;-62
2022/12/30 07:06:33;;;;;;;21.15;2.95;;;4.30;99.90;;;;;;5014375;28;20076;-62
2022/12/30 07:08:58;;;;;;;26.45;3.67;;;4.30;99.90;;;;;;5013579;28;20042;-62
2022/12/30 07:11:24;;;;;;;26.02;3.10;;;4.30;99.90;;;;;;5025967;28;20041;-62
2022/12/30 07:13:50;;;;;;;19.42;2.95;;;4.30;99.90;;;;;;5008222;28;20041;-62
2022/12/30 07:16:16;;;;;;;27.63;4.07;;;4.30;99.90;;;;;;4988806;28;20049;-62
2022/12/30 07:18:42;;;;;;;20.48;2.50;;;4.30;99.90;;;;;;4996718;28;20099;-62
2022/12/30 07:21:08;;;;;;;21.95;2.90;;;4.30;99.90;;;;;;5024091;28;20416;-62
2022/12/30 07:23:34;;;;;;;25.50;2.97;;;4.30;99.90;;;;;;5026392;28;20510;-62
2022/12/30 07:25:59;;;;;;;17.02;2.72;;;4.30;99.90;;;;;;5026266;28;20778;-62
2022/12/30 07:28:25;;;;;;;21.08;2.50;;;4.30;99.90;;;;;;5025806;28;20060;-62
2022/12/30 07:30:51;;;;;;;22.63;2.38;;;4.30;99.90;;;;;;5025876;28;20168;-62
2022/12/30 07:33:17;;;;;;;26.60;2.17;;;4.30;99.90;;;;;;5025684;28;20025;-62
2022/12/30 07:35:42;;;;;;;16.17;2.10;;;4.30;99.90;;;;;;5026108;28;20119;-62
2022/12/30 07:38:08;;;;;;;20.83;2.50;;;4.30;99.90;;;;;;5025974;28;20037;-62
2022/12/30 07:40:36;;;;;;;16.20;2.38;;;4.30;99.90;;;;;;5025552;28;20075;-62
2022/12/30 07:43:03;;;;;;;15.00;2.35;;;4.30;99.90;;;;;;5025407;28;20873;-62
2022/12/30 07:45:29;;;;;;;14.88;2.13;;;4.30;99.90;;;;;;5025624;28;20041;-62
2022/12/30 07:47:58;;;;;;;18.92;2.33;;;4.30;99.90;;;;;;5025725;28;20494;-62
2022/12/30 07:50:23;;;;;;;23.88;2.67;;;4.30;99.90;;;;;;5025080;28;20033;-62
2022/12/30 07:52:49;;;;;;;22.63;2.15;;;4.30;99.90;;;;;;5006693;28;20041;-62
2022/12/30 07:55:15;;;;;;;12.70;1.63;;;4.20;99.90;;;;;;5025596;28;20060;-62
2022/12/30 07:57:41;;;;;;;17.25;2.90;;;4.20;99.90;;;;;;5024942;28;20181;-62
2022/12/30 08:00:09;;;;;;;26.58;2.40;;;4.20;99.90;;;;;;5024644;28;20128;-62
2022/12/30 08:02:36;;;;;;;16.13;2.63;;;4.20;99.90;;;;;;5024790;28;20084;-62
2022/12/30 08:05:01;;;;;;;15.00;2.20;;;4.20;99.90;;;;;;5007971;28;20053;-62
2022/12/30 08:07:27;;;;;;;18.08;2.78;;;4.20;99.90;;;;;;5024693;28;20408;-62
2022/12/30 08:09:53;;;;;;;20.75;2.53;;;4.20;99.90;;;;;;5025514;28;20120;-62
2022/12/30 08:12:19;;;;;;;12.10;1.73;;;4.20;99.90;;;;;;5024765;28;20590;-62
2022/12/30 08:14:45;;;;;;;18.58;2.83;;;4.20;99.90;;;;;;5006468;28;20176;-62
2022/12/30 08:17:10;;;;;;;15.02;2.53;;;4.20;99.90;;;;;;5024750;28;20487;-62
2022/12/30 08:19:36;;;;;;;24.27;3.03;;;4.20;99.90;;;;;;5025310;28;20107;-62
2022/12/30 08:22:02;;;;;;;12.60;2.35;;;4.20;99.90;;;;;;5025173;28;20080;-61
2022/12/30 08:24:28;;;;;;;18.75;2.60;;;4.20;99.90;;;;;;5024421;28;20048;-62
2022/12/30 08:26:54;;;;;;;9.18;1.48;;;4.30;99.90;;;;;;5025516;28;20045;-62
2022/12/30 08:29:20;;;;;;;13.90;2.35;;;4.30;99.90;;;;;;5024808;28;20038;-62
2022/12/30 08:31:49;;;;;;;19.08;1.98;;;4.30;99.90;;;;;;5024894;28;20136;-62
2022/12/30 08:34:17;;;;;;;20.30;2.17;;;4.30;99.90;;;;;;5007075;28;20636;-62
2022/12/30 08:36:44;;;;;;;21.33;3.00;;;4.50;99.90;;;;;;5016002;28;20129;-62
2022/12/30 08:39:10;;;;;;;19.27;2.70;;;4.40;99.90;;;;;;5024850;28;20077;-62
2022/12/30 08:41:39;;;;;;;18.48;2.33;;;4.40;99.90;;;;;;5006556;28;20406;-62
2022/12/30 08:44:06;;;;;;;26.50;2.53;;;4.50;99.90;;;;;;5024676;28;20938;-62
2022/12/30 08:46:33;;;;;;;25.85;3.17;;;4.50;99.90;;;;;;5006653;28;20135;-62
2022/12/30 08:49:00;;;;;;;13.40;2.33;;;4.60;99.90;;;;;;5024774;28;20057;-62
2022/12/30 08:51:26;;;;;;;2.33;0.65;;;4.60;99.90;;;;;;5024194;28;20120;-62
2022/12/30 08:53:52;;;;;;;11.85;1.73;;;4.70;99.90;;;;;;5023567;28;20038;-62
2022/12/30 08:56:27;;;;;;;5.25;1.60;;;4.70;99.90;;;;;;5006884;28;20046;-62
2022/12/30 08:58:54;;;;;;;14.98;2.47;;;4.80;99.90;;;;;;5017762;28;20068;-62
2022/12/30 09:01:34;;;;;;;25.30;2.25;;;4.80;99.90;;;;;;5013536;28;20037;-62
2022/12/30 09:04:00;;;;;;;24.95;2.75;;;4.90;99.90;;;;;;5022992;28;20089;-62
2022/12/30 09:06:28;;;;;;;24.42;2.55;;;5.00;99.90;;;;;;5024916;28;20519;-62
2022/12/30 09:08:56;;;;;;;20.33;2.38;;;5.00;99.90;;;;;;5006099;28;20049;-62
2022/12/30 09:11:24;;;;;;;23.27;2.42;;;5.00;99.90;;;;;;5024795;28;20371;-62
2022/12/30 09:13:51;;;;;;;14.65;2.22;;;5.00;99.90;;;;;;5023591;28;20120;-62
2022/12/30 09:16:23;;;;;;;8.98;1.65;;;5.00;99.90;;;;;;5005468;28;20042;-63
2022/12/30 09:18:50;;;;;;;9.98;1.50;;;5.10;99.90;;;;;;5006841;28;20055;-62
2022/12/30 09:21:17;;;;;;;21.27;2.72;;;5.10;99.90;;;;;;5023946;28;20047;-62
2022/12/30 09:23:43;;;;;;;12.75;2.15;;;5.10;99.90;;;;;;5024441;28;20081;-61
2022/12/30 09:26:09;;;;;;;6.68;1.30;;;5.20;99.90;;;;;;5006304;28;20049;-62
2022/12/30 09:28:35;;;;;;;2.20;0.75;;;5.20;99.90;;;;;;5024108;28;20144;-62
2022/12/30 09:31:02;;;;;;;5.32;1.13;;;5.20;99.90;;;;;;5005531;28;20473;-62
2022/12/30 09:33:28;;;;;;;14.00;2.38;;;5.30;99.90;;;;;;5023934;28;20439;-62
2022/12/30 09:35:53;;;;;;;8.82;1.42;;;5.30;99.90;;;;;;5024679;28;20064;-62
2022/12/30 09:38:20;;;;;;;13.05;1.63;;;5.30;99.90;;;;;;5005705;28;20491;-62
2022/12/30 09:40:52;;;;;;;2.95;0.68;;;5.40;99.90;;;;;;5024808;28;20049;-62
2022/12/30 09:43:32;;;;;;;18.00;2.30;;;5.40;99.90;;;;;;5022992;28;20527;-62
2022/12/30 09:46:10;;;;;;;14.75;2.25;;;5.40;99.90;;;;;;5021057;28;20052;-62
2022/12/30 09:48:45;;;;;;;14.93;2.05;;;5.50;99.90;;;;;;5024037;28;20041;-62
2022/12/30 09:51:17;;;;;;;17.98;3.08;;;5.50;99.90;;;;;;5023570;28;20425;-62
2022/12/30 09:53:49;;;;;;;17.25;2.08;;;5.50;99.90;;;;;;4989687;28;20050;-62
2022/12/30 09:56:25;;;;;;;19.50;3.20;;;5.50;99.90;;;;;;5023141;28;20442;-62
2022/12/30 09:58:55;;;;;;;13.57;1.55;;;5.50;99.90;;;;;;5021750;28;20515;-62
2022/12/30 10:01:34;;;;;;;17.67;2.47;;;5.60;99.90;;;;;;5023511;28;20053;-62
2022/12/30 10:04:01;;;;;;;5.13;1.30;;;5.60;99.90;;;;;;5018339;28;20054;-62
2022/12/30 10:07:02;;;;;;;13.93;1.35;;;5.60;99.90;;;;;;5008263;28;20039;-62
2022/12/30 10:09:44;;;;;;;6.30;1.65;;;5.70;99.90;;;;;;5017938;28;20277;-62
2022/12/30 10:12:28;;;;;;;13.10;1.00;;;5.70;99.90;;;;;;5020436;28;20243;-62
2022/12/30 10:15:14;;;;;;;11.43;1.83;;;5.70;99.90;;;;;;4995223;28;20484;-62
2022/12/30 10:18:15;;;;;;;19.85;2.85;;;5.70;99.90;;;;;;4975997;28;20049;-62
2022/12/30 10:20:55;;;;;;;8.68;1.13;;;5.80;99.90;;;;;;5023006;28;20080;-63
2022/12/30 10:23:43;;;;;;;12.48;1.48;;;5.80;99.90;;;;;;5015348;28;20041;-62
2022/12/30 10:26:14;;;;;;;9.27;1.17;;;5.90;99.90;;;;;;5025826;28;20169;-62
2022/12/30 10:28:59;;;;;;;4.93;0.55;;;5.90;99.90;;;;;;5016423;28;20054;-62
2022/12/30 10:31:28;;;;;;;21.20;2.92;;;5.90;99.90;;;;;;5017874;28;20077;-62
2022/12/30 10:34:02;;;;;;;15.73;1.90;;;6.00;99.90;;;;;;5017592;28;20069;-62
2022/12/30 10:36:36;;;;;;;9.88;1.38;;;6.00;99.90;;;;;;5021212;28;20042;-62
2022/12/30 10:39:16;;;;;;;13.52;1.73;;;6.00;99.90;;;;;;5023765;28;20537;-62
2022/12/30 10:42:00;;;;;;;8.43;3.07;;;6.10;99.90;;;;;;5026637;28;20060;-62
2022/12/30 10:44:59;;;;;;;20.45;2.50;;;6.10;99.90;;;;;;5014649;28;20644;-62
2022/12/30 10:47:47;;;;;;;20.20;2.13;;;6.20;99.90;;;;;;5017962;28;20084;-62
2022/12/30 10:50:34;;;;;;;14.52;1.98;;;6.20;99.90;;;;;;5016144;28;20500;-62
2022/12/30 10:53:02;;;;;;;15.75;2.30;;;6.30;99.90;;;;;;5016794;28;20049;-62
2022/12/30 10:55:33;;;;;;;9.70;1.60;;;6.40;99.90;;;;;;5015054;28;20045;-62
2022/12/30 10:58:01;;;;;;;19.05;1.67;;;6.40;99.90;;;;;;5025019;28;20069;-62
2022/12/30 11:00:29;;;;;;;22.85;2.75;;;6.50;99.90;;;;;;5023252;28;20049;-62
2022/12/30 11:02:58;;;;;;;2.50;0.73;;;6.60;99.90;;;;;;5018926;28;20399;-62
2022/12/30 11:05:33;;;;;;;11.52;1.88;;;6.60;99.90;;;;;;5025860;28;20116;-62
2022/12/30 11:08:01;;;;;;;11.45;1.73;;;6.60;99.90;;;;;;5009172;28;20053;-62
2022/12/30 11:10:27;;;;;;;7.53;1.38;;;6.70;99.90;;;;;;5020574;28;20041;-62
2022/12/30 11:15:58;;;;;;;13.50;1.50;;;6.80;99.90;;;;;;5014396;28;20045;-62
2022/12/30 11:18:29;;;;;;;7.00;1.08;;;6.80;99.90;;;;;;5019796;28;20053;-62
2022/12/30 11:20:59;;;;;;;12.75;2.55;;;6.90;99.90;;;;;;5024345;28;20049;-62
2022/12/30 11:23:32;;;;;;;6.70;1.52;;;7.00;99.90;;;;;;5026366;28;20224;-62
2022/12/30 11:26:01;;;;;;;15.52;1.55;;;7.00;99.90;;;;;;5025283;28;20075;-62
2022/12/30 11:28:34;;;;;;;4.75;1.05;;;7.00;99.90;;;;;;5008054;28;20052;-62
2022/12/30 11:31:10;;;;;;;11.38;1.45;;;7.00;99.90;;;;;;5024947;28;20037;-62
2022/12/30 11:33:46;;;;;;;12.48;2.10;;;7.00;99.90;;;;;;5006724;28;20124;-62
2022/12/30 11:36:17;;;;;;;10.57;1.92;;;7.00;99.90;;;;;;5007775;28;20507;-63
2022/12/30 11:38:45;;;;;;;10.57;2.08;;;6.90;99.90;;;;;;5025789;28;20060;-62
2022/12/30 11:41:19;;;;;;;4.55;1.33;;;6.90;99.90;;;;;;5025937;28;20493;-62
2022/12/30 11:43:50;;;;;;;14.75;1.80;;;6.90;99.90;;;;;;5007664;28;20049;-63
2022/12/30 11:46:20;;;;;;;14.43;1.80;;;6.90;99.90;;;;;;5025598;28;20432;-63
2022/12/30 11:48:53;;;;;;;22.33;2.22;;;6.90;99.90;;;;;;5025767;28;20120;-63
2022/12/30 11:51:25;;;;;;;4.90;0.90;;;6.90;99.90;;;;;;5006661;28;20124;-62
2022/12/30 11:54:11;;;;;;;5.60;1.38;;;6.90;99.90;;;;;;5026366;28;20052;-63
2022/12/30 11:57:01;;;;;;;7.93;1.33;;;6.90;99.90;;;;;;5024527;28;20063;-63
2022/12/30 11:59:35;;;;;;;11.85;1.13;;;7.00;99.90;;;;;;5025171;28;20506;-62
2022/12/30 12:02:05;;;;;;;9.38;1.67;;;7.00;99.90;;;;;;5006964;28;20057;-62
2022/12/30 12:04:41;;;;;;;14.38;3.70;;;7.00;99.90;;;;;;5023498;28;20048;-62
2022/12/30 12:07:21;;;;;;;10.45;1.42;;;7.10;99.90;;;;;;5015014;28;20045;-63
2022/12/30 12:09:50;;;;;;;;;;;7.10;99.90;;;;;;4997115;28;20046;-63
2022/12/30 12:12:19;;;;;;;9.23;1.52;;;7.10;99.90;;;;;;5019444;28;19925;-63
2022/12/30 12:15:22;;;;;;;10.23;1.63;;;7.10;99.90;;;;;;5007429;28;20041;-63
2022/12/30 12:18:13;;;;;;;11.10;1.38;;;7.20;99.90;;;;;;4998868;28;20117;-63
2022/12/30 12:21:00;;;;;;;2.63;0.73;;;7.20;99.90;;;;;;5018790;28;20414;-62
2022/12/30 12:23:34;;;;;;;7.20;0.90;;;7.20;99.90;;;;;;5003681;28;20472;-62
2022/12/30 12:26:21;;;;;;;1.50;0.57;;;7.20;99.90;;;;;;5024347;28;20041;-62
2022/12/30 12:28:48;;;;;;;8.18;1.20;;;7.30;99.90;;;;;;4996633;28;20073;-63
2022/12/30 12:31:34;;;;;;;6.15;0.98;;;7.30;99.90;;;;;;5006321;28;20565;-63
2022/12/30 12:34:20;;;;;;;5.47;1.20;;;7.30;99.90;;;;;;5025044;28;20055;-62
2022/12/30 12:36:55;;;;;;;7.28;1.00;;;7.40;99.90;;;;;;5025223;28;20049;-63
2022/12/30 12:39:30;;;;;;;2.60;0.65;;;7.50;99.90;;;;;;5024303;28;20124;-62
2022/12/30 12:42:03;;;;;;;2.65;0.70;;;7.50;99.90;;;;;;5023489;28;20050;-62
2022/12/30 12:44:50;;;;;;;5.03;0.82;;;7.50;99.90;;;;;;5023432;28;20073;-62
2022/12/30 12:47:28;;;;;;;9.95;1.40;;;7.60;99.90;;;;;;5017196;28;20091;-63
2022/12/30 12:50:06;;;;;;;1.98;0.75;;;7.60;99.90;;;;;;5024371;28;20067;-62
2022/12/30 12:52:51;;;;;;;7.00;1.40;;;7.60;99.90;;;;;;5017063;28;20134;-62
2022/12/30 12:55:35;;;;;;;1.45;0.50;;;7.60;99.90;;;;;;5023724;28;20041;-63
2022/12/30 12:58:25;;;;;;;6.43;0.77;;;7.60;99.90;;;;;;5024285;28;20129;-63
2022/12/30 13:01:00;;;;;;;5.03;1.05;;;7.70;99.90;;;;;;5014769;28;20502;-63
2022/12/30 13:03:52;;;;;;;8.52;1.60;;;7.70;99.90;;;;;;5023996;28;20675;-63
2022/12/30 13:06:41;;;;;;;8.10;1.25;;;7.70;99.90;;;;;;5007073;28;20053;-63
2022/12/30 13:09:16;;;;;;;3.95;0.98;;;7.70;99.90;;;;;;5013770;28;20041;-63
2022/12/30 13:12:23;;;;;;;6.15;1.45;;;7.70;99.90;;;;;;5024813;28;20042;-62
2022/12/30 13:15:00;;;;;;;4.38;1.45;;;7.70;99.90;;;;;;4993626;28;20067;-63
2022/12/30 13:17:30;;;;;;;11.52;1.55;;;7.60;99.90;;;;;;5024752;28;20399;-63
2022/12/30 13:20:08;;;;;;;10.27;1.52;;;7.60;99.90;;;;;;5024800;28;20054;-63
2022/12/30 13:22:37;;;;;;;10.68;2.30;;;7.50;99.90;;;;;;5005619;28;20049;-62
2022/12/30 13:25:17;;;;;;;8.30;1.65;;;7.50;99.90;;;;;;5024686;28;20058;-63
2022/12/30 13:27:46;;;;;;;2.83;1.10;;;7.50;99.90;;;;;;5005884;28;20054;-63
2022/12/30 13:30:14;;;;;;;3.42;1.10;;;7.50;99.90;;;;;;5024081;28;20049;-63
2022/12/30 13:33:09;;;;;;;4.38;0.73;;;7.50;99.90;;;;;;5023287;28;20037;-63
2022/12/30 13:36:05;;;;;;;0.70;0.30;;;7.50;99.90;;;;;;5005900;28;20128;-63
2022/12/30 13:38:58;;;;;;;9.48;1.33;;;7.60;99.90;;;;;;5010544;28;20080;-62
2022/12/30 13:41:39;;;;;;;15.82;1.27;;;7.50;99.90;;;;;;4989825;28;20045;-62
2022/12/30 13:44:11;;;;;;;10.13;1.30;;;7.60;99.90;;;;;;5005509;28;20107;-62
2022/12/30 13:46:45;;;;;;;3.67;1.05;;;7.60;99.90;;;;;;5024180;28;20043;-63
2022/12/30 13:49:31;;;;;;;8.95;1.05;;;7.60;99.90;;;;;;5006702;28;20041;-62
2022/12/30 13:52:00;;;;;;;2.17;0.52;;;7.60;99.90;;;;;;5023612;28;20060;-63
2022/12/30 13:54:28;;;;;;;1.08;0.30;;;7.70;99.90;;;;;;5024536;28;20065;-63
2022/12/30 13:56:58;;;;;;;5.10;1.23;;;7.80;99.90;;;;;;5024093;28;20510;-62
2022/12/30 13:59:30;;;;;;;4.55;0.82;;;7.80;99.90;;;;;;5010973;28;20053;-63
2022/12/30 14:02:40;;;;;;;7.07;0.95;;;7.80;99.90;;;;;;5026753;28;20067;-63
2022/12/30 14:05:38;;;;;;;1.40;0.50;;;7.90;99.90;;;;;;5027534;28;20049;-63
2022/12/30 14:08:20;;;;;;;10.40;1.13;;;7.90;99.90;;;;;;5010482;28;20052;-63
2022/12/30 14:11:01;;;;;;;8.98;1.27;;;8.00;99.90;;;;;;5009695;28;20054;-62
2022/12/30 14:13:27;;;;;;;3.83;0.55;;;8.00;99.90;;;;;;5027525;28;20068;-63